sensor_id;sensor_type;location;lat;lon;timestamp;pressure;altitude;pressure_sealevel;temperature;humidity
74529;BME280;63009;52.584;5.932;2023-07-20T00:00:22;101438.44;;;15.27;100.00
74529;BME280;63009;52.584;5.932;2023-07-20T00:02:50;101446.63;;;15.24;100.00
74529;BME280;63009;52.584;5.932;2023-07-20T00:05:15;101444.38;;;15.18;100.00
74529;BME280;63009;52.584;5.932;2023-07-20T00:07:43;101433.09;;;15.14;100.00
74529;BME280;63009;52.584;5.932;2023-07-20T00:10:09;101442.88;;;15.13;100.00
74529;BME280;63009;52.584;5.932;2023-07-20T00:12:34;101439.25;;;15.14;100.00
74529;BME280;63009;52.584;5.932;2023-07-20T00:14:59;101440.13;;;15.15;100.00
74529;BME280;63009;52.584;5.932;2023-07-20T00:17:25;101440.34;;;15.12;100.00
74529;BME280;63009;52.584;5.932;2023-07-20T00:19:50;101441.81;;;15.16;100.00
74529;BME280;63009;52.584;5.932;2023-07-20T00:22:15;101447.88;;;15.18;100.00
74529;BME280;63009;52.584;5.932;2023-07-20T00:24:41;101437.34;;;15.17;100.00
74529;BME280;63009;52.584;5.932;2023-07-20T00:27:06;101448.84;;;15.17;100.00
74529;BME280;63009;52.584;5.932;2023-07-20T00:29:31;101446.94;;;15.19;100.00
74529;BME280;63009;52.584;5.932;2023-07-20T00:31:58;101439.06;;;15.18;100.00
74529;BME280;63009;52.584;5.932;2023-07-20T00:34:23;101443.53;;;15.17;100.00
74529;BME280;63009;52.584;5.932;2023-07-20T00:36:48;101446.06;;;15.19;100.00
74529;BME280;63009;52.584;5.932;2023-07-20T00:39:14;101440.75;;;15.19;100.00
74529;BME280;63009;52.584;5.932;2023-07-20T00:41:39;101446.00;;;15.20;100.00
74529;BME280;63009;52.584;5.932;2023-07-20T00:44:05;101441.59;;;15.19;100.00
74529;BME280;63009;52.584;5.932;2023-07-20T00:46:30;101438.31;;;15.15;100.00
74529;BME280;63009;52.584;5.932;2023-07-20T00:48:57;101432.25;;;15.13;100.00
74529;BME280;63009;52.584;5.932;2023-07-20T00:51:25;101432.97;;;15.15;100.00
74529;BME280;63009;52.584;5.932;2023-07-20T00:53:51;101422.66;;;15.11;100.00
74529;BME280;63009;52.584;5.932;2023-07-20T00:56:17;101429.69;;;15.12;100.00
74529;BME280;63009;52.584;5.932;2023-07-20T00:58:42;101422.09;;;15.06;100.00
74529;BME280;63009;52.584;5.932;2023-07-20T01:01:08;101436.94;;;15.10;100.00
74529;BME280;63009;52.584;5.932;2023-07-20T01:03:33;101430.97;;;15.06;100.00
74529;BME280;63009;52.584;5.932;2023-07-20T01:06:21;101437.13;;;15.07;100.00
74529;BME280;63009;52.584;5.932;2023-07-20T01:09:13;101433.06;;;15.01;100.00
74529;BME280;63009;52.584;5.932;2023-07-20T01:14:27;101444.78;;;14.99;100.00
74529;BME280;63009;52.584;5.932;2023-07-20T01:16:53;101445.00;;;14.96;100.00
74529;BME280;63009;52.584;5.932;2023-07-20T01:19:18;101438.25;;;14.90;100.00
74529;BME280;63009;52.584;5.932;2023-07-20T01:27:10;101446.28;;;14.76;100.00
74529;BME280;63009;52.584;5.932;2023-07-20T01:32:17;101441.03;;;14.62;100.00
74529;BME280;63009;52.584;5.932;2023-07-20T01:34:44;101444.75;;;14.59;100.00
74529;BME280;63009;52.584;5.932;2023-07-20T01:37:11;101440.69;;;14.53;100.00
74529;BME280;63009;52.584;5.932;2023-07-20T01:39:38;101439.56;;;14.43;100.00
74529;BME280;63009;52.584;5.932;2023-07-20T01:42:04;101439.75;;;14.40;100.00
74529;BME280;63009;52.584;5.932;2023-07-20T01:44:29;101439.19;;;14.35;100.00
74529;BME280;63009;52.584;5.932;2023-07-20T01:46:55;101447.38;;;14.32;100.00
74529;BME280;63009;52.584;5.932;2023-07-20T01:49:20;101437.97;;;14.26;100.00
74529;BME280;63009;52.584;5.932;2023-07-20T01:51:45;101446.91;;;14.25;100.00
74529;BME280;63009;52.584;5.932;2023-07-20T01:54:10;101445.47;;;14.20;100.00
74529;BME280;63009;52.584;5.932;2023-07-20T01:56:36;101450.25;;;14.15;100.00
74529;BME280;63009;52.584;5.932;2023-07-20T01:59:01;101448.53;;;14.14;100.00
74529;BME280;63009;52.584;5.932;2023-07-20T02:01:26;101447.03;;;14.10;100.00
74529;BME280;63009;52.584;5.932;2023-07-20T02:03:53;101446.56;;;14.03;100.00
74529;BME280;63009;52.584;5.932;2023-07-20T02:06:19;101449.22;;;14.03;100.00
74529;BME280;63009;52.584;5.932;2023-07-20T02:08:44;101447.81;;;13.98;100.00
74529;BME280;63009;52.584;5.932;2023-07-20T02:11:10;101435.84;;;13.90;100.00
74529;BME280;63009;52.584;5.932;2023-07-20T02:13:35;101441.47;;;13.86;100.00
74529;BME280;63009;52.584;5.932;2023-07-20T02:16:00;101442.78;;;13.79;100.00
74529;BME280;63009;52.584;5.932;2023-07-20T02:18:25;101440.22;;;13.77;100.00
74529;BME280;63009;52.584;5.932;2023-07-20T02:20:53;101449.44;;;13.72;100.00
74529;BME280;63009;52.584;5.932;2023-07-20T02:23:18;101445.25;;;13.68;100.00
74529;BME280;63009;52.584;5.932;2023-07-20T02:25:43;101455.91;;;13.68;100.00
74529;BME280;63009;52.584;5.932;2023-07-20T02:28:10;101443.06;;;13.60;100.00
74529;BME280;63009;52.584;5.932;2023-07-20T02:30:40;101446.78;;;13.57;100.00
74529;BME280;63009;52.584;5.932;2023-07-20T02:33:05;101449.03;;;13.49;100.00
74529;BME280;63009;52.584;5.932;2023-07-20T02:35:32;101452.81;;;13.45;100.00
74529;BME280;63009;52.584;5.932;2023-07-20T02:37:57;101450.56;;;13.39;100.00
74529;BME280;63009;52.584;5.932;2023-07-20T02:40:22;101445.50;;;13.34;100.00
74529;BME280;63009;52.584;5.932;2023-07-20T02:42:48;101450.66;;;13.38;100.00
74529;BME280;63009;52.584;5.932;2023-07-20T02:45:13;101453.38;;;13.36;100.00
74529;BME280;63009;52.584;5.932;2023-07-20T02:47:39;101443.13;;;13.30;100.00
74529;BME280;63009;52.584;5.932;2023-07-20T02:50:07;101441.72;;;13.24;100.00
74529;BME280;63009;52.584;5.932;2023-07-20T02:52:32;101459.44;;;13.24;100.00
74529;BME280;63009;52.584;5.932;2023-07-20T02:54:58;101460.34;;;13.23;100.00
74529;BME280;63009;52.584;5.932;2023-07-20T02:57:23;101461.56;;;13.17;100.00
74529;BME280;63009;52.584;5.932;2023-07-20T02:59:48;101459.75;;;13.18;100.00
74529;BME280;63009;52.584;5.932;2023-07-20T03:02:13;101456.72;;;13.10;100.00
74529;BME280;63009;52.584;5.932;2023-07-20T03:04:39;101453.38;;;13.06;100.00
74529;BME280;63009;52.584;5.932;2023-07-20T03:07:05;101460.66;;;13.02;100.00
74529;BME280;63009;52.584;5.932;2023-07-20T03:09:30;101470.41;;;13.02;100.00
74529;BME280;63009;52.584;5.932;2023-07-20T03:11:55;101467.34;;;12.94;100.00
74529;BME280;63009;52.584;5.932;2023-07-20T03:14:21;101461.66;;;12.86;100.00
74529;BME280;63009;52.584;5.932;2023-07-20T03:16:46;101474.06;;;12.85;100.00
74529;BME280;63009;52.584;5.932;2023-07-20T03:19:11;101474.50;;;12.77;100.00
74529;BME280;63009;52.584;5.932;2023-07-20T03:21:37;101468.41;;;12.75;100.00
74529;BME280;63009;52.584;5.932;2023-07-20T03:24:06;101482.81;;;12.71;100.00
74529;BME280;63009;52.584;5.932;2023-07-20T03:26:32;101472.53;;;12.65;100.00
74529;BME280;63009;52.584;5.932;2023-07-20T03:28:57;101481.63;;;12.61;100.00
74529;BME280;63009;52.584;5.932;2023-07-20T03:31:22;101490.50;;;12.60;100.00
74529;BME280;63009;52.584;5.932;2023-07-20T03:33:47;101476.91;;;12.51;100.00
74529;BME280;63009;52.584;5.932;2023-07-20T03:36:13;101482.31;;;12.49;100.00
74529;BME280;63009;52.584;5.932;2023-07-20T03:38:39;101485.91;;;12.48;100.00
74529;BME280;63009;52.584;5.932;2023-07-20T03:41:04;101478.03;;;12.46;100.00
74529;BME280;63009;52.584;5.932;2023-07-20T03:43:29;101481.91;;;12.41;100.00
74529;BME280;63009;52.584;5.932;2023-07-20T03:45:55;101482.56;;;12.44;100.00
74529;BME280;63009;52.584;5.932;2023-07-20T03:48:22;101487.97;;;12.43;100.00
74529;BME280;63009;52.584;5.932;2023-07-20T03:50:49;101475.75;;;12.40;100.00
74529;BME280;63009;52.584;5.932;2023-07-20T03:53:16;101476.59;;;12.41;100.00
74529;BME280;63009;52.584;5.932;2023-07-20T03:55:44;101484.38;;;12.44;100.00
74529;BME280;63009;52.584;5.932;2023-07-20T03:58:11;101480.09;;;12.41;100.00
74529;BME280;63009;52.584;5.932;2023-07-20T04:00:37;101486.44;;;12.39;100.00
74529;BME280;63009;52.584;5.932;2023-07-20T04:03:02;101474.44;;;12.32;100.00
74529;BME280;63009;52.584;5.932;2023-07-20T04:05:27;101485.91;;;12.32;100.00
74529;BME280;63009;52.584;5.932;2023-07-20T04:07:53;101476.31;;;12.30;100.00
74529;BME280;63009;52.584;5.932;2023-07-20T04:10:19;101484.19;;;12.31;100.00
74529;BME280;63009;52.584;5.932;2023-07-20T04:12:44;101483.34;;;12.31;100.00
74529;BME280;63009;52.584;5.932;2023-07-20T04:15:12;101492.06;;;12.33;100.00
74529;BME280;63009;52.584;5.932;2023-07-20T04:17:38;101480.69;;;12.31;100.00
74529;BME280;63009;52.584;5.932;2023-07-20T04:20:04;101484.94;;;12.33;100.00
74529;BME280;63009;52.584;5.932;2023-07-20T04:22:30;101483.34;;;12.31;100.00
74529;BME280;63009;52.584;5.932;2023-07-20T04:24:56;101491.97;;;12.34;100.00
74529;BME280;63009;52.584;5.932;2023-07-20T04:27:21;101497.03;;;12.39;100.00
74529;BME280;63009;52.584;5.932;2023-07-20T04:29:47;101494.28;;;12.40;100.00
74529;BME280;63009;52.584;5.932;2023-07-20T04:32:12;101501.13;;;12.44;100.00
74529;BME280;63009;52.584;5.932;2023-07-20T04:34:37;101506.16;;;12.49;100.00
74529;BME280;63009;52.584;5.932;2023-07-20T04:37:04;101502.75;;;12.47;100.00
74529;BME280;63009;52.584;5.932;2023-07-20T04:39:29;101504.19;;;12.53;100.00
74529;BME280;63009;52.584;5.932;2023-07-20T04:41:55;101503.28;;;12.54;100.00
74529;BME280;63009;52.584;5.932;2023-07-20T04:44:21;101510.03;;;12.59;100.00
74529;BME280;63009;52.584;5.932;2023-07-20T04:46:46;101502.91;;;12.60;100.00
74529;BME280;63009;52.584;5.932;2023-07-20T04:49:11;101502.66;;;12.64;100.00
74529;BME280;63009;52.584;5.932;2023-07-20T04:51:38;101507.63;;;12.70;100.00
74529;BME280;63009;52.584;5.932;2023-07-20T04:54:03;101508.22;;;12.75;100.00
74529;BME280;63009;52.584;5.932;2023-07-20T04:56:28;101509.06;;;12.76;100.00
74529;BME280;63009;52.584;5.932;2023-07-20T04:58:54;101525.31;;;12.86;100.00
74529;BME280;63009;52.584;5.932;2023-07-20T05:01:19;101511.09;;;12.87;100.00
74529;BME280;63009;52.584;5.932;2023-07-20T05:03:45;101514.16;;;12.95;100.00
74529;BME280;63009;52.584;5.932;2023-07-20T05:06:10;101527.56;;;13.07;100.00
74529;BME280;63009;52.584;5.932;2023-07-20T05:08:35;101519.19;;;13.15;100.00
74529;BME280;63009;52.584;5.932;2023-07-20T05:11:00;101523.53;;;13.32;100.00
74529;BME280;63009;52.584;5.932;2023-07-20T05:13:26;101524.63;;;13.44;100.00
74529;BME280;63009;52.584;5.932;2023-07-20T05:15:52;101523.69;;;13.59;100.00
74529;BME280;63009;52.584;5.932;2023-07-20T05:18:18;101522.56;;;13.77;100.00
74529;BME280;63009;52.584;5.932;2023-07-20T05:20:48;101528.50;;;13.96;100.00
74529;BME280;63009;52.584;5.932;2023-07-20T05:23:14;101530.75;;;14.17;100.00
74529;BME280;63009;52.584;5.932;2023-07-20T05:25:40;101528.06;;;14.60;100.00
74529;BME280;63009;52.584;5.932;2023-07-20T05:28:06;101523.25;;;15.06;100.00
74529;BME280;63009;52.584;5.932;2023-07-20T05:30:31;101517.41;;;15.40;100.00
74529;BME280;63009;52.584;5.932;2023-07-20T05:32:56;101521.19;;;15.76;100.00
74529;BME280;63009;52.584;5.932;2023-07-20T05:35:22;101523.09;;;16.12;99.77
74529;BME280;63009;52.584;5.932;2023-07-20T05:37:47;101526.25;;;16.43;97.45
74529;BME280;63009;52.584;5.932;2023-07-20T05:40:14;101527.56;;;16.74;95.79
74529;BME280;63009;52.584;5.932;2023-07-20T05:42:43;101524.22;;;17.07;92.54
74529;BME280;63009;52.584;5.932;2023-07-20T05:45:08;101523.94;;;17.23;92.21
74529;BME280;63009;52.584;5.932;2023-07-20T05:47:34;101534.34;;;17.49;90.78
74529;BME280;63009;52.584;5.932;2023-07-20T05:49:59;101527.03;;;17.75;89.64
74529;BME280;63009;52.584;5.932;2023-07-20T05:52:25;101522.31;;;17.90;88.43
74529;BME280;63009;52.584;5.932;2023-07-20T05:54:50;101520.13;;;18.18;86.34
74529;BME280;63009;52.584;5.932;2023-07-20T05:57:16;101534.91;;;18.55;85.07
74529;BME280;63009;52.584;5.932;2023-07-20T05:59:41;101527.84;;;18.88;82.95
74529;BME280;63009;52.584;5.932;2023-07-20T06:02:09;101537.28;;;19.03;82.49
74529;BME280;63009;52.584;5.932;2023-07-20T06:04:35;101542.53;;;19.25;79.82
74529;BME280;63009;52.584;5.932;2023-07-20T06:07:00;101537.97;;;19.37;76.00
74529;BME280;63009;52.584;5.932;2023-07-20T06:09:25;101529.50;;;19.53;77.09
74529;BME280;63009;52.584;5.932;2023-07-20T06:11:52;101533.06;;;19.74;77.01
74529;BME280;63009;52.584;5.932;2023-07-20T06:14:17;101540.81;;;19.98;73.84
74529;BME280;63009;52.584;5.932;2023-07-20T06:16:43;101536.22;;;20.10;72.91
74529;BME280;63009;52.584;5.932;2023-07-20T06:19:08;101539.00;;;20.29;72.33
74529;BME280;63009;52.584;5.932;2023-07-20T06:21:36;101549.53;;;20.52;72.19
74529;BME280;63009;52.584;5.932;2023-07-20T06:24:01;101536.56;;;20.66;69.21
74529;BME280;63009;52.584;5.932;2023-07-20T06:26:27;101542.44;;;20.41;67.73
74529;BME280;63009;52.584;5.932;2023-07-20T06:28:53;101550.88;;;20.77;67.03
74529;BME280;63009;52.584;5.932;2023-07-20T06:31:19;101555.88;;;21.00;68.54
74529;BME280;63009;52.584;5.932;2023-07-20T06:33:44;101549.81;;;21.18;65.63
74529;BME280;63009;52.584;5.932;2023-07-20T06:36:09;101551.81;;;21.35;67.62
74529;BME280;63009;52.584;5.932;2023-07-20T06:38:35;101556.63;;;21.31;65.94
74529;BME280;63009;52.584;5.932;2023-07-20T06:41:00;101562.53;;;21.64;63.15
74529;BME280;63009;52.584;5.932;2023-07-20T06:43:25;101555.31;;;21.64;61.10
74529;BME280;63009;52.584;5.932;2023-07-20T06:45:52;101560.69;;;21.64;61.59
74529;BME280;63009;52.584;5.932;2023-07-20T06:48:18;101560.66;;;21.93;63.63
74529;BME280;63009;52.584;5.932;2023-07-20T06:50:44;101556.09;;;22.04;60.94
74529;BME280;63009;52.584;5.932;2023-07-20T06:53:09;101565.59;;;22.08;60.98
74529;BME280;63009;52.584;5.932;2023-07-20T06:55:34;101558.19;;;22.19;59.77
74529;BME280;63009;52.584;5.932;2023-07-20T06:58:00;101560.09;;;22.37;58.24
74529;BME280;63009;52.584;5.932;2023-07-20T07:00:25;101553.69;;;22.47;57.22
74529;BME280;63009;52.584;5.932;2023-07-20T07:02:50;101563.53;;;22.66;56.22
74529;BME280;63009;52.584;5.932;2023-07-20T07:05:15;101561.44;;;22.50;56.92
74529;BME280;63009;52.584;5.932;2023-07-20T07:07:41;101564.28;;;22.49;60.48
74529;BME280;63009;52.584;5.932;2023-07-20T07:10:07;101559.81;;;22.40;58.60
74529;BME280;63009;52.584;5.932;2023-07-20T07:12:33;101560.53;;;22.69;59.37
74529;BME280;63009;52.584;5.932;2023-07-20T07:14:59;101570.03;;;22.91;58.68
74529;BME280;63009;52.584;5.932;2023-07-20T07:17:25;101556.13;;;22.96;59.65
74529;BME280;63009;52.584;5.932;2023-07-20T07:19:52;101574.69;;;22.99;60.70
74529;BME280;63009;52.584;5.932;2023-07-20T07:22:20;101565.56;;;22.82;56.64
74529;BME280;63009;52.584;5.932;2023-07-20T07:24:45;101566.75;;;23.15;58.48
74529;BME280;63009;52.584;5.932;2023-07-20T07:27:10;101563.44;;;23.21;55.54
74529;BME280;63009;52.584;5.932;2023-07-20T07:29:36;101568.59;;;23.50;55.55
74529;BME280;63009;52.584;5.932;2023-07-20T07:32:01;101566.13;;;23.75;56.66
74529;BME280;63009;52.584;5.932;2023-07-20T07:34:27;101565.19;;;23.84;56.75
74529;BME280;63009;52.584;5.932;2023-07-20T07:36:52;101570.59;;;24.10;54.58
74529;BME280;63009;52.584;5.932;2023-07-20T07:39:17;101561.03;;;24.23;52.78
74529;BME280;63009;52.584;5.932;2023-07-20T07:41:42;101565.69;;;24.39;54.81
74529;BME280;63009;52.584;5.932;2023-07-20T07:44:08;101563.66;;;24.07;52.30
74529;BME280;63009;52.584;5.932;2023-07-20T07:46:33;101573.75;;;24.05;52.36
74529;BME280;63009;52.584;5.932;2023-07-20T07:48:58;101580.25;;;23.68;51.37
74529;BME280;63009;52.584;5.932;2023-07-20T07:51:23;101571.63;;;23.12;54.68
74529;BME280;63009;52.584;5.932;2023-07-20T07:53:49;101576.22;;;22.84;56.22
74529;BME280;63009;52.584;5.932;2023-07-20T07:56:15;101568.97;;;22.84;56.30
74529;BME280;63009;52.584;5.932;2023-07-20T07:58:41;101586.28;;;22.81;57.11
74529;BME280;63009;52.584;5.932;2023-07-20T08:01:07;101585.63;;;22.97;58.34
74529;BME280;63009;52.584;5.932;2023-07-20T08:03:32;101570.53;;;23.04;59.30
74529;BME280;63009;52.584;5.932;2023-07-20T08:05:57;101579.09;;;23.00;55.91
74529;BME280;63009;52.584;5.932;2023-07-20T08:08:24;101581.44;;;22.85;55.86
74529;BME280;63009;52.584;5.932;2023-07-20T08:10:52;101579.38;;;22.69;56.43
74529;BME280;63009;52.584;5.932;2023-07-20T08:13:17;101580.16;;;22.52;56.93
74529;BME280;63009;52.584;5.932;2023-07-20T08:15:51;101576.56;;;22.34;55.96
74529;BME280;63009;52.584;5.932;2023-07-20T08:18:17;101580.03;;;22.16;58.13
74529;BME280;63009;52.584;5.932;2023-07-20T08:20:46;101577.22;;;21.99;59.12
74529;BME280;63009;52.584;5.932;2023-07-20T08:23:12;101583.34;;;21.81;59.38
74529;BME280;63009;52.584;5.932;2023-07-20T08:28:16;101585.78;;;21.36;63.69
74529;BME280;63009;52.584;5.932;2023-07-20T08:30:46;101579.22;;;21.10;67.44
74529;BME280;63009;52.584;5.932;2023-07-20T08:33:14;101586.03;;;21.14;68.22
74529;BME280;63009;52.584;5.932;2023-07-20T08:35:39;101576.94;;;20.95;67.42
74529;BME280;63009;52.584;5.932;2023-07-20T08:38:05;101584.25;;;20.74;66.90
74529;BME280;63009;52.584;5.932;2023-07-20T08:40:32;101589.06;;;20.70;67.29
74529;BME280;63009;52.584;5.932;2023-07-20T08:42:58;101583.47;;;20.53;67.69
74529;BME280;63009;52.584;5.932;2023-07-20T08:45:26;101590.94;;;20.49;66.22
74529;BME280;63009;52.584;5.932;2023-07-20T08:47:52;101598.53;;;19.93;69.16
74529;BME280;63009;52.584;5.932;2023-07-20T08:50:19;101594.69;;;19.65;69.73
74529;BME280;63009;52.584;5.932;2023-07-20T08:52:46;101596.69;;;19.08;72.58
74529;BME280;63009;52.584;5.932;2023-07-20T08:55:13;101597.44;;;18.99;74.65
74529;BME280;63009;52.584;5.932;2023-07-20T08:57:38;101606.25;;;18.90;76.88
74529;BME280;63009;52.584;5.932;2023-07-20T09:00:07;101617.22;;;18.76;78.76
74529;BME280;63009;52.584;5.932;2023-07-20T09:02:39;101615.00;;;18.36;78.64
74529;BME280;63009;52.584;5.932;2023-07-20T09:05:07;101625.72;;;18.36;80.46
74529;BME280;63009;52.584;5.932;2023-07-20T09:07:33;101615.69;;;18.16;81.46
74529;BME280;63009;52.584;5.932;2023-07-20T09:10:00;101614.97;;;18.14;82.91
74529;BME280;63009;52.584;5.932;2023-07-20T09:12:30;101609.13;;;18.08;83.01
74529;BME280;63009;52.584;5.932;2023-07-20T09:14:57;101603.66;;;18.10;84.25
74529;BME280;63009;52.584;5.932;2023-07-20T09:17:25;101611.72;;;18.32;84.68
74529;BME280;63009;52.584;5.932;2023-07-20T09:19:51;101604.81;;;18.63;83.91
74529;BME280;63009;52.584;5.932;2023-07-20T09:22:16;101608.66;;;18.93;79.09
74529;BME280;63009;52.584;5.932;2023-07-20T09:24:42;101610.81;;;19.10;73.54
74529;BME280;63009;52.584;5.932;2023-07-20T09:27:08;101611.63;;;19.22;74.51
74529;BME280;63009;52.584;5.932;2023-07-20T09:29:34;101609.34;;;19.61;74.47
74529;BME280;63009;52.584;5.932;2023-07-20T09:32:02;101605.75;;;19.71;72.72
74529;BME280;63009;52.584;5.932;2023-07-20T09:34:29;101607.44;;;19.93;69.57
74529;BME280;63009;52.584;5.932;2023-07-20T09:36:57;101608.88;;;20.18;67.65
74529;BME280;63009;52.584;5.932;2023-07-20T09:39:23;101615.34;;;20.15;66.38
74529;BME280;63009;52.584;5.932;2023-07-20T09:41:48;101607.19;;;20.27;68.11
74529;BME280;63009;52.584;5.932;2023-07-20T09:44:15;101595.03;;;20.43;68.68
74529;BME280;63009;52.584;5.932;2023-07-20T09:46:47;101591.00;;;20.59;65.36
74529;BME280;63009;52.584;5.932;2023-07-20T09:49:14;101602.41;;;20.91;66.20
74529;BME280;63009;52.584;5.932;2023-07-20T09:51:40;101606.75;;;21.42;65.80
74529;BME280;63009;52.584;5.932;2023-07-20T09:54:06;101606.88;;;21.31;60.81
74529;BME280;63009;52.584;5.932;2023-07-20T09:56:32;101613.94;;;21.80;62.98
74529;BME280;63009;52.584;5.932;2023-07-20T09:58:58;101597.38;;;22.41;61.28
74529;BME280;63009;52.584;5.932;2023-07-20T10:01:24;101601.66;;;22.99;57.90
74529;BME280;63009;52.584;5.932;2023-07-20T10:03:53;101602.69;;;23.69;60.73
74529;BME280;63009;52.584;5.932;2023-07-20T10:06:23;101599.06;;;23.60;55.52
74529;BME280;63009;52.584;5.932;2023-07-20T10:08:55;101604.53;;;23.51;55.72
74529;BME280;63009;52.584;5.932;2023-07-20T10:11:22;101593.06;;;23.66;55.46
74529;BME280;63009;52.584;5.932;2023-07-20T10:13:51;101599.13;;;23.86;56.71
74529;BME280;63009;52.584;5.932;2023-07-20T10:16:25;101592.72;;;24.13;58.27
74529;BME280;63009;52.584;5.932;2023-07-20T10:21:48;101601.34;;;24.43;55.41
74529;BME280;63009;52.584;5.932;2023-07-20T10:24:17;101601.47;;;24.67;55.92
74529;BME280;63009;52.584;5.932;2023-07-20T10:26:43;101590.47;;;24.35;54.63
74529;BME280;63009;52.584;5.932;2023-07-20T10:29:09;101594.44;;;24.48;54.96
74529;BME280;63009;52.584;5.932;2023-07-20T10:31:35;101590.75;;;24.49;54.44
74529;BME280;63009;52.584;5.932;2023-07-20T10:34:02;101589.03;;;24.48;54.83
74529;BME280;63009;52.584;5.932;2023-07-20T10:36:28;101595.16;;;24.24;55.66
74529;BME280;63009;52.584;5.932;2023-07-20T10:38:55;101588.66;;;24.35;56.69
74529;BME280;63009;52.584;5.932;2023-07-20T10:41:34;101592.28;;;24.26;56.17
74529;BME280;63009;52.584;5.932;2023-07-20T10:44:04;101587.22;;;24.23;57.64
74529;BME280;63009;52.584;5.932;2023-07-20T10:49:05;101598.22;;;24.04;56.95
74529;BME280;63009;52.584;5.932;2023-07-20T10:51:39;101584.75;;;23.86;55.12
74529;BME280;63009;52.584;5.932;2023-07-20T10:54:07;101598.06;;;23.61;52.89
74529;BME280;63009;52.584;5.932;2023-07-20T10:56:32;101589.53;;;23.66;55.03
74529;BME280;63009;52.584;5.932;2023-07-20T10:58:59;101592.44;;;23.73;53.24
74529;BME280;63009;52.584;5.932;2023-07-20T11:01:28;101570.63;;;23.66;52.60
74529;BME280;63009;52.584;5.932;2023-07-20T11:03:58;101577.41;;;23.52;53.39
74529;BME280;63009;52.584;5.932;2023-07-20T11:08:56;101591.56;;;23.54;52.07
74529;BME280;63009;52.584;5.932;2023-07-20T11:14:01;101587.56;;;23.76;52.03
74529;BME280;63009;52.584;5.932;2023-07-20T11:16:37;101588.97;;;23.80;51.14
74529;BME280;63009;52.584;5.932;2023-07-20T11:19:04;101580.97;;;23.96;51.30
74529;BME280;63009;52.584;5.932;2023-07-20T11:21:35;101578.94;;;24.24;53.22
74529;BME280;63009;52.584;5.932;2023-07-20T11:24:03;101589.06;;;23.96;51.27
74529;BME280;63009;52.584;5.932;2023-07-20T11:26:28;101578.19;;;24.14;49.48
74529;BME280;63009;52.584;5.932;2023-07-20T11:28:54;101576.56;;;24.21;51.16
74529;BME280;63009;52.584;5.932;2023-07-20T11:31:19;101573.69;;;24.23;50.52
74529;BME280;63009;52.584;5.932;2023-07-20T11:33:44;101570.53;;;24.02;49.45
74529;BME280;63009;52.584;5.932;2023-07-20T11:36:10;101575.00;;;24.45;50.57
74529;BME280;63009;52.584;5.932;2023-07-20T11:38:36;101576.34;;;24.91;51.47
74529;BME280;63009;52.584;5.932;2023-07-20T11:41:04;101573.41;;;25.27;46.59
74529;BME280;63009;52.584;5.932;2023-07-20T11:43:30;101564.28;;;25.36;46.85
74529;BME280;63009;52.584;5.932;2023-07-20T11:45:56;101567.00;;;25.52;44.60
74529;BME280;63009;52.584;5.932;2023-07-20T11:48:21;101566.16;;;25.92;47.36
74529;BME280;63009;52.584;5.932;2023-07-20T11:50:47;101576.28;;;25.98;43.66
74529;BME280;63009;52.584;5.932;2023-07-20T11:53:12;101558.63;;;26.19;46.42
74529;BME280;63009;52.584;5.932;2023-07-20T11:55:40;101569.53;;;25.94;44.70
74529;BME280;63009;52.584;5.932;2023-07-20T11:58:06;101565.84;;;25.79;43.57
74529;BME280;63009;52.584;5.932;2023-07-20T12:00:33;101572.41;;;25.52;42.77
74529;BME280;63009;52.584;5.932;2023-07-20T12:02:59;101558.03;;;25.27;43.31
74529;BME280;63009;52.584;5.932;2023-07-20T12:05:25;101555.09;;;25.04;44.11
74529;BME280;63009;52.584;5.932;2023-07-20T12:07:51;101557.34;;;25.09;45.27
74529;BME280;63009;52.584;5.932;2023-07-20T12:10:23;101546.19;;;25.36;47.26
74529;BME280;63009;52.584;5.932;2023-07-20T12:12:49;101554.13;;;25.30;46.35
74529;BME280;63009;52.584;5.932;2023-07-20T12:15:22;101557.34;;;25.33;43.13
74529;BME280;63009;52.584;5.932;2023-07-20T12:17:56;101555.47;;;25.17;45.03
74529;BME280;63009;52.584;5.932;2023-07-20T12:20:35;101551.06;;;25.08;43.59
74529;BME280;63009;52.584;5.932;2023-07-20T12:23:02;101549.88;;;25.19;44.48
74529;BME280;63009;52.584;5.932;2023-07-20T12:25:36;101548.19;;;25.18;43.21
74529;BME280;63009;52.584;5.932;2023-07-20T12:28:04;101553.44;;;25.28;41.82
74529;BME280;63009;52.584;5.932;2023-07-20T12:30:29;101552.94;;;25.40;41.42
74529;BME280;63009;52.584;5.932;2023-07-20T12:32:54;101544.44;;;24.95;40.42
74529;BME280;63009;52.584;5.932;2023-07-20T12:35:20;101549.31;;;24.99;39.29
74529;BME280;63009;52.584;5.932;2023-07-20T12:37:45;101539.59;;;25.23;43.22
74529;BME280;63009;52.584;5.932;2023-07-20T12:40:14;101541.28;;;25.48;43.60
74529;BME280;63009;52.584;5.932;2023-07-20T12:42:39;101547.03;;;25.53;43.02
74529;BME280;63009;52.584;5.932;2023-07-20T12:45:05;101547.19;;;25.27;41.74
74529;BME280;63009;52.584;5.932;2023-07-20T12:47:31;101544.16;;;25.46;40.94
74529;BME280;63009;52.584;5.932;2023-07-20T12:49:56;101543.50;;;25.69;38.73
74529;BME280;63009;52.584;5.932;2023-07-20T12:52:21;101531.66;;;25.70;41.57
74529;BME280;63009;52.584;5.932;2023-07-20T12:54:47;101542.78;;;25.83;42.77
74529;BME280;63009;52.584;5.932;2023-07-20T12:57:12;101546.34;;;25.75;42.02
74529;BME280;63009;52.584;5.932;2023-07-20T12:59:37;101535.50;;;25.67;42.31
74529;BME280;63009;52.584;5.932;2023-07-20T13:02:03;101534.34;;;25.78;41.66
74529;BME280;63009;52.584;5.932;2023-07-20T13:04:28;101537.03;;;25.94;44.75